Time;durP1;ratioP1;P1;durP2;ratioP2;P2;SDS_P1;SDS_P2;PMS_P1;PMS_P2;Temp;Humidity;BMP_temperature;BMP_pressure;BME280_temperature;BME280_humidity;BME280_pressure;Samples;Min_cycle;Max_cycle;Signal;HPM_P1;HPM_P2
2023/10/13 00:01:58;;;;;;;21.30;13.18;;;;;;;;;;7363830;19;20037;-73
2023/10/13 00:04:27;;;;;;;28.75;13.25;;;;;;;;;;7385948;19;20023;-73
2023/10/13 00:06:53;;;;;;;23.73;13.73;;;;;;;;;;7365872;19;20063;-73
2023/10/13 00:09:25;;;;;;;21.80;12.32;;;;;;;;;;7365305;19;20010;-73
2023/10/13 00:11:52;;;;;;;24.38;12.90;;;;;;;;;;7366020;19;20014;-73
2023/10/13 00:14:18;;;;;;;24.73;13.18;;;;;;;;;;7366161;19;20114;-73
2023/10/13 00:19:37;;;;;;;23.50;12.98;;;;;;;;;;7366408;19;20023;-73
2023/10/13 00:22:08;;;;;;;22.13;12.70;;;;;;;;;;7365044;19;20044;-73
2023/10/13 00:24:42;;;;;;;27.55;13.98;;;;;;;;;;7364915;19;20006;-73
2023/10/13 00:27:29;;;;;;;23.10;13.57;;;;;;;;;;7365658;19;20018;-73
2023/10/13 00:30:27;;;;;;;21.88;13.23;;;;;;;;;;7363911;19;20019;-73
2023/10/13 00:32:56;;;;;;;27.50;14.18;;;;;;;;;;7370851;19;20350;-73
2023/10/13 00:35:29;;;;;;;21.70;12.35;;;;;;;;;;7372944;19;20034;-73
2023/10/13 00:38:04;;;;;;;22.40;12.35;;;;;;;;;;7372839;19;20014;-73
2023/10/13 00:43:28;;;;;;;25.67;13.43;;;;;;;;;;7369904;19;20055;-73
2023/10/13 00:45:43;;;;;;;25.05;12.65;;;;;;;;;;7372417;19;20038;-73
2023/10/13 00:48:12;;;;;;;25.33;12.75;;;;;;;;;;7371985;19;20361;-73
2023/10/13 00:50:37;;;;;;;21.17;12.30;;;;;;;;;;7372852;19;20025;-73
2023/10/13 00:53:03;;;;;;;29.92;12.13;;;;;;;;;;7370029;19;20006;-73
2023/10/13 00:55:33;;;;;;;23.27;12.13;;;;;;;;;;7393518;19;20597;-73
2023/10/13 00:58:03;;;;;;;22.52;11.40;;;;;;;;;;7372036;19;20081;-73
2023/10/13 01:00:29;;;;;;;20.77;11.73;;;;;;;;;;7372627;19;20040;-73
2023/10/13 01:03:06;;;;;;;19.38;11.40;;;;;;;;;;7370070;19;20034;-73
2023/10/13 01:05:33;;;;;;;21.98;12.02;;;;;;;;;;7372468;19;20118;-73
2023/10/13 01:08:01;;;;;;;24.83;11.95;;;;;;;;;;7372613;19;20023;-73
2023/10/13 01:10:27;;;;;;;23.55;11.60;;;;;;;;;;7394424;19;20002;-73
2023/10/13 01:12:54;;;;;;;25.00;12.23;;;;;;;;;;7369609;19;20005;-72
2023/10/13 01:15:22;;;;;;;24.98;11.55;;;;;;;;;;7371385;19;20022;-72
2023/10/13 01:17:48;;;;;;;23.02;11.90;;;;;;;;;;7372328;19;20015;-72
2023/10/13 01:20:24;;;;;;;23.27;12.13;;;;;;;;;;7372105;19;20013;-72
2023/10/13 01:22:55;;;;;;;30.30;12.18;;;;;;;;;;7370389;19;20356;-73
2023/10/13 01:25:25;;;;;;;17.75;11.40;;;;;;;;;;7393102;19;20121;-73
2023/10/13 01:27:52;;;;;;;19.83;10.80;;;;;;;;;;7371314;19;20016;-73
2023/10/13 01:30:22;;;;;;;26.25;10.90;;;;;;;;;;7372117;19;20451;-73
2023/10/13 01:32:47;;;;;;;28.73;11.83;;;;;;;;;;7369418;19;20011;-72
2023/10/13 01:35:12;;;;;;;18.85;10.57;;;;;;;;;;7371314;19;20015;-72
2023/10/13 01:37:38;;;;;;;22.90;11.50;;;;;;;;;;7394501;19;20011;-72
2023/10/13 01:40:04;;;;;;;20.00;10.60;;;;;;;;;;7366691;19;20371;-73
2023/10/13 01:42:30;;;;;;;23.67;10.95;;;;;;;;;;7369817;19;20011;-73
2023/10/13 01:44:58;;;;;;;18.73;10.95;;;;;;;;;;7369449;19;20104;-73
2023/10/13 01:47:23;;;;;;;19.55;10.70;;;;;;;;;;7372051;19;20444;-73
2023/10/13 01:49:50;;;;;;;18.90;11.95;;;;;;;;;;7370964;19;20006;-73
2023/10/13 01:52:15;;;;;;;26.17;11.90;;;;;;;;;;7391626;19;20002;-73
2023/10/13 01:54:48;;;;;;;19.58;11.80;;;;;;;;;;7368424;19;20392;-73
2023/10/13 01:57:17;;;;;;;20.10;12.07;;;;;;;;;;7370824;19;20750;-73
2023/10/13 01:59:43;;;;;;;24.58;11.63;;;;;;;;;;7370256;19;20082;-73
2023/10/13 02:02:12;;;;;;;19.70;10.23;;;;;;;;;;7369875;19;20007;-73
2023/10/13 02:04:43;;;;;;;18.77;10.13;;;;;;;;;;7391126;19;20010;-73
2023/10/13 02:07:08;;;;;;;20.92;10.88;;;;;;;;;;7370078;19;20049;-73
2023/10/13 02:09:36;;;;;;;22.15;10.80;;;;;;;;;;7371615;19;20733;-73
2023/10/13 02:12:02;;;;;;;21.05;11.40;;;;;;;;;;7370967;19;20038;-73
2023/10/13 02:14:27;;;;;;;24.30;11.10;;;;;;;;;;7372402;19;20078;-73
2023/10/13 02:17:11;;;;;;;21.10;11.52;;;;;;;;;;7371662;19;20003;-73
2023/10/13 02:19:39;;;;;;;19.15;11.05;;;;;;;;;;7394759;19;20078;-73
2023/10/13 02:22:08;;;;;;;20.70;11.77;;;;;;;;;;7369979;19;20006;-72
2023/10/13 02:24:34;;;;;;;23.90;11.60;;;;;;;;;;7368384;19;20488;-72
2023/10/13 02:27:04;;;;;;;19.90;12.50;;;;;;;;;;7370282;19;20035;-73
2023/10/13 02:29:29;;;;;;;16.63;11.10;;;;;;;;;;7369317;19;20002;-73
2023/10/13 02:31:55;;;;;;;20.48;12.30;;;;;;;;;;7368138;19;20025;-73
2023/10/13 02:34:23;;;;;;;21.58;11.85;;;;;;;;;;7389792;19;20007;-73
2023/10/13 02:36:48;;;;;;;18.73;12.00;;;;;;;;;;7365201;19;20006;-73
2023/10/13 02:39:24;;;;;;;21.20;12.05;;;;;;;;;;7368931;19;20047;-73
2023/10/13 02:41:49;;;;;;;21.50;13.10;;;;;;;;;;7368204;19;20003;-73
2023/10/13 02:44:26;;;;;;;25.35;13.48;;;;;;;;;;7368443;19;20017;-73
2023/10/13 02:46:52;;;;;;;25.77;12.90;;;;;;;;;;7370002;19;20005;-73
2023/10/13 02:49:19;;;;;;;24.15;13.18;;;;;;;;;;7391361;19;20089;-74
2023/10/13 02:51:45;;;;;;;26.25;13.60;;;;;;;;;;7368589;19;20485;-73
2023/10/13 02:54:12;;;;;;;26.45;13.98;;;;;;;;;;7366634;19;20023;-73
2023/10/13 02:56:57;;;;;;;;;;;;;;;;;;;;;
2023/10/13 02:59:39;;;;;;;25.50;13.85;;;;;;;;;;7368575;19;20054;-72
2023/10/13 03:02:17;;;;;;;30.92;15.65;;;;;;;;;;7368305;19;20021;-73
2023/10/13 03:04:59;;;;;;;22.67;14.07;;;;;;;;;;7389418;19;20017;-74
2023/10/13 03:07:30;;;;;;;28.08;14.25;;;;;;;;;;7368671;19;20090;-73
2023/10/13 03:09:59;;;;;;;26.08;13.65;;;;;;;;;;7364438;19;20029;-74
2023/10/13 03:12:25;;;;;;;24.25;14.23;;;;;;;;;;7367498;19;20010;-74
2023/10/13 03:14:55;;;;;;;23.85;13.88;;;;;;;;;;7368008;19;20009;-74
2023/10/13 03:17:33;;;;;;;25.67;14.27;;;;;;;;;;7369030;19;20023;-73
2023/10/13 03:19:58;;;;;;;22.95;13.48;;;;;;;;;;7369231;19;20014;-73
2023/10/13 03:22:31;;;;;;;21.98;13.07;;;;;;;;;;7391595;19;20098;-73
2023/10/13 03:25:04;;;;;;;27.85;13.77;;;;;;;;;;7365843;19;20098;-74
2023/10/13 03:27:40;;;;;;;23.40;13.07;;;;;;;;;;7367301;19;20010;-73
2023/10/13 03:30:15;;;;;;;26.77;14.55;;;;;;;;;;7368520;19;20496;-74
2023/10/13 03:32:53;;;;;;;26.70;14.15;;;;;;;;;;7367411;19;20062;-74
2023/10/13 03:35:25;;;;;;;28.02;15.25;;;;;;;;;;7368192;19;20010;-74
2023/10/13 03:37:54;;;;;;;26.33;14.82;;;;;;;;;;7368725;19;20041;-74
2023/10/13 03:43:04;;;;;;;;;;;;;;;;;;;;;
2023/10/13 03:45:42;;;;;;;25.35;15.77;;;;;;;;;;7367146;19;20002;-73
2023/10/13 03:48:09;;;;;;;29.55;15.77;;;;;;;;;;7365973;19;20019;-74
2023/10/13 03:53:25;;;;;;;22.42;14.55;;;;;;;;;;7362563;19;20023;-74
2023/10/13 03:56:07;;;;;;;27.35;15.50;;;;;;;;;;7364062;19;20143;-74
2023/10/13 03:58:34;;;;;;;34.55;16.48;;;;;;;;;;7387105;19;20533;-73
2023/10/13 04:01:00;;;;;;;30.92;15.05;;;;;;;;;;7365830;19;20002;-73
2023/10/13 04:03:33;;;;;;;28.40;15.68;;;;;;;;;;7364974;19;20374;-73
2023/10/13 04:06:06;;;;;;;35.88;15.52;;;;;;;;;;7364223;19;20046;-73
2023/10/13 04:09:15;;;;;;;28.95;15.50;;;;;;;;;;7366759;19;20018;-73
2023/10/13 04:12:17;;;;;;;30.15;15.48;;;;;;;;;;7366273;19;20106;-73
2023/10/13 04:17:22;;;;;;;35.20;16.92;;;;;;;;;;7367460;19;20017;-73
2023/10/13 04:28:50;;;;;;;28.70;15.07;;;;;;;;;;7366168;19;20506;-73
2023/10/13 04:33:51;;;;;;;22.92;14.45;;;;;;;;;;7363661;19;20027;-74
2023/10/13 04:36:36;;;;;;;27.10;15.23;;;;;;;;;;7365915;19;20676;-72
2023/10/13 04:41:42;;;;;;;28.20;14.68;;;;;;;;;;7365602;19;20007;-72
2023/10/13 04:49:49;;;;;;;29.45;14.68;;;;;;;;;;7387604;19;20117;-73
2023/10/13 04:52:38;;;;;;;28.95;14.45;;;;;;;;;;7364520;19;20003;-73
2023/10/13 04:55:16;;;;;;;27.63;14.63;;;;;;;;;;7362885;19;20003;-73
2023/10/13 04:57:52;;;;;;;27.58;15.38;;;;;;;;;;7365281;19;20003;-74
2023/10/13 06:29:49;;;;;;;20.88;12.52;;;;;;;;;;7370095;19;21328;-73
2023/10/13 06:32:16;;;;;;;25.05;12.25;;;;;;;;;;7362578;19;20007;-74
2023/10/13 06:34:45;;;;;;;25.88;12.18;;;;;;;;;;7386575;19;20003;-73
2023/10/13 06:37:25;;;;;;;24.73;12.27;;;;;;;;;;7362534;19;20003;-73
2023/10/13 06:40:16;;;;;;;20.33;11.32;;;;;;;;;;7367335;19;20002;-73
2023/10/13 06:42:44;;;;;;;19.52;11.13;;;;;;;;;;7367055;19;20483;-73
2023/10/13 06:45:11;;;;;;;25.63;11.35;;;;;;;;;;7365547;19;20010;-72
2023/10/13 06:47:43;;;;;;;17.65;10.82;;;;;;;;;;7364961;19;20090;-72
2023/10/13 06:50:24;;;;;;;20.77;10.10;;;;;;;;;;7364758;19;20014;-73
2023/10/13 06:52:50;;;;;;;24.85;11.13;;;;;;;;;;7363057;19;20339;-73
2023/10/13 06:55:27;;;;;;;17.63;11.00;;;;;;;;;;7386454;19;19999;-73
2023/10/13 06:57:52;;;;;;;21.17;9.90;;;;;;;;;;7364828;19;20046;-73
2023/10/13 07:00:34;;;;;;;16.90;9.82;;;;;;;;;;7365782;19;20007;-73
2023/10/13 07:03:06;;;;;;;23.23;9.50;;;;;;;;;;7363878;19;20027;-74
2023/10/13 07:05:39;;;;;;;42.65;28.45;;;;;;;;;;7366273;19;20010;-74
2023/10/13 07:08:08;;;;;;;19.13;11.10;;;;;;;;;;7365722;19;20027;-73
2023/10/13 07:10:51;;;;;;;20.38;9.13;;;;;;;;;;7385873;19;20014;-73
2023/10/13 07:13:19;;;;;;;18.77;8.48;;;;;;;;;;7361567;19;20040;-72
2023/10/13 07:15:45;;;;;;;17.58;9.23;;;;;;;;;;7363543;19;20003;-73
2023/10/13 07:18:22;;;;;;;17.10;8.10;;;;;;;;;;7362915;19;20464;-73
2023/10/13 07:20:48;;;;;;;25.77;8.70;;;;;;;;;;7363900;19;20069;-74
2023/10/13 07:23:17;;;;;;;16.92;7.63;;;;;;;;;;7357159;19;20014;-74
2023/10/13 07:25:51;;;;;;;16.02;7.43;;;;;;;;;;7384125;19;20031;-73
2023/10/13 07:28:16;;;;;;;20.58;7.45;;;;;;;;;;7363453;19;20002;-74
2023/10/13 07:33:19;;;;;;;18.33;6.18;;;;;;;;;;7363577;19;20034;-73
2023/10/13 07:35:50;;;;;;;14.98;5.65;;;;;;;;;;7363824;19;20511;-74
2023/10/13 07:38:16;;;;;;;11.00;5.90;;;;;;;;;;7363629;19;20010;-73
2023/10/13 07:40:42;;;;;;;13.65;6.10;;;;;;;;;;7385972;19;19999;-73
2023/10/13 07:43:10;;;;;;;17.45;6.07;;;;;;;;;;7361491;19;20727;-74
2023/10/13 07:45:40;;;;;;;16.63;5.78;;;;;;;;;;7362722;19;20007;-73
2023/10/13 07:48:12;;;;;;;20.13;6.53;;;;;;;;;;7367765;19;20007;-73
2023/10/13 07:50:40;;;;;;;11.68;5.90;;;;;;;;;;7370028;19;20006;-73
2023/10/13 07:53:24;;;;;;;17.60;6.40;;;;;;;;;;7375024;19;20007;-75
2023/10/13 07:55:55;;;;;;;15.95;5.60;;;;;;;;;;7376170;19;20471;-73
2023/10/13 07:58:24;;;;;;;18.35;5.50;;;;;;;;;;7389138;19;20010;-74
2023/10/13 08:00:54;;;;;;;16.92;6.50;;;;;;;;;;7364150;19;20464;-74
2023/10/13 08:03:32;;;;;;;15.25;5.60;;;;;;;;;;7362046;19;20070;-72
2023/10/13 08:06:19;;;;;;;16.45;6.25;;;;;;;;;;7365568;19;20015;-75
2023/10/13 08:08:53;;;;;;;15.20;6.68;;;;;;;;;;7364776;19;20127;-73
2023/10/13 08:11:26;;;;;;;16.02;5.95;;;;;;;;;;7366597;19;20007;-73
2023/10/13 08:13:59;;;;;;;17.58;6.10;;;;;;;;;;7364210;19;20006;-75
2023/10/13 08:16:52;;;;;;;17.20;6.82;;;;;;;;;;7387769;19;20009;-75
2023/10/13 08:19:49;;;;;;;17.80;5.95;;;;;;;;;;7373443;19;20003;-77
2023/10/13 08:22:23;;;;;;;18.17;5.63;;;;;;;;;;7371415;19;20002;-74
2023/10/13 08:27:48;;;;;;;12.60;6.18;;;;;;;;;;7366664;19;19998;-74
2023/10/13 08:30:26;;;;;;;17.20;6.43;;;;;;;;;;7366906;19;20016;-75
2023/10/13 08:32:54;;;;;;;19.98;7.40;;;;;;;;;;7357946;19;20007;-76
2023/10/13 08:35:54;;;;;;;17.95;7.07;;;;;;;;;;7361436;19;20467;-74
2023/10/13 08:38:16;;;;;;;18.67;7.05;;;;;;;;;;7363111;19;20100;-74
2023/10/13 08:41:25;;;;;;;17.33;6.80;;;;;;;;;;7385381;19;20022;-73
2023/10/13 08:43:42;;;;;;;17.70;7.00;;;;;;;;;;7359938;19;20426;-74
2023/10/13 08:46:09;;;;;;;13.55;6.45;;;;;;;;;;7363136;19;20111;-75
2023/10/13 08:48:36;;;;;;;17.48;7.10;;;;;;;;;;7361815;19;20091;-75
2023/10/13 08:51:10;;;;;;;17.00;6.50;;;;;;;;;;7364347;19;20017;-74
2023/10/13 08:53:47;;;;;;;14.68;6.65;;;;;;;;;;7365264;19;20010;-73
2023/10/13 09:12:35;;;;;;;16.83;6.65;;;;;;;;;;7371956;19;20002;-74
2023/10/13 09:15:05;;;;;;;14.15;6.50;;;;;;;;;;7370072;19;19998;-75
2023/10/13 09:25:34;;;;;;;14.88;5.85;;;;;;;;;;7369986;19;20455;-75
2023/10/13 09:28:00;;;;;;;16.58;6.30;;;;;;;;;;7369882;19;20345;-74
2023/10/13 09:30:28;;;;;;;12.18;6.10;;;;;;;;;;7384526;19;20014;-73
2023/10/13 09:33:15;;;;;;;15.98;6.05;;;;;;;;;;7380566;19;19999;-75
2023/10/13 09:35:48;;;;;;;14.20;6.13;;;;;;;;;;7368568;19;20002;-75
2023/10/13 09:38:15;;;;;;;13.35;5.85;;;;;;;;;;7368623;19;20010;-75
2023/10/13 09:40:46;;;;;;;13.65;6.30;;;;;;;;;;7391057;19;20006;-75
2023/10/13 09:43:20;;;;;;;14.48;6.22;;;;;;;;;;7366666;19;20078;-74
2023/10/13 09:46:01;;;;;;;11.75;6.05;;;;;;;;;;7368154;19;20341;-74
2023/10/13 09:48:45;;;;;;;15.05;5.90;;;;;;;;;;7368675;19;20122;-75
2023/10/13 09:51:14;;;;;;;11.48;5.57;;;;;;;;;;7368777;19;20022;-75
2023/10/13 09:53:44;;;;;;;15.02;5.80;;;;;;;;;;7370443;19;20102;-75
2023/10/13 09:56:19;;;;;;;10.98;5.57;;;;;;;;;;7368348;19;20026;-74
2023/10/13 09:59:00;;;;;;;11.05;5.85;;;;;;;;;;7387694;19;20006;-75
2023/10/13 10:01:37;;;;;;;17.65;6.10;;;;;;;;;;7368308;19;20014;-74
2023/10/13 10:04:17;;;;;;;15.20;6.32;;;;;;;;;;7366405;19;20011;-74
2023/10/13 10:06:52;;;;;;;14.93;7.03;;;;;;;;;;7367230;19;20013;-76
2023/10/13 10:09:21;;;;;;;11.98;6.25;;;;;;;;;;7371731;19;20815;-75
2023/10/13 10:12:08;;;;;;;14.57;6.80;;;;;;;;;;7368373;19;20006;-76
2023/10/13 10:14:56;;;;;;;19.40;6.57;;;;;;;;;;7366533;19;20014;-75
2023/10/13 10:17:22;;;;;;;14.13;6.78;;;;;;;;;;7363258;19;20410;-75
2023/10/13 10:19:48;;;;;;;16.23;6.93;;;;;;;;;;7371617;19;19995;-75
2023/10/13 10:22:20;;;;;;;13.68;5.97;;;;;;;;;;7385588;19;20129;-75
2023/10/13 10:24:57;;;;;;;14.50;6.20;;;;;;;;;;7363535;19;20002;-74
2023/10/13 10:27:31;;;;;;;13.35;6.30;;;;;;;;;;7365522;19;20019;-75
2023/10/13 10:29:57;;;;;;;13.98;6.38;;;;;;;;;;7364727;19;20011;-75
2023/10/13 10:32:33;;;;;;;13.50;5.80;;;;;;;;;;7364745;19;20007;-75
2023/10/13 10:35:14;;;;;;;14.27;5.93;;;;;;;;;;7367249;19;20007;-74
2023/10/13 10:37:46;;;;;;;10.80;5.40;;;;;;;;;;7391946;19;20397;-74
2023/10/13 10:40:46;;;;;;;10.60;5.80;;;;;;;;;;7366523;19;20010;-74
2023/10/13 10:43:17;;;;;;;11.20;5.55;;;;;;;;;;7364574;19;20003;-75
2023/10/13 10:45:46;;;;;;;9.55;5.20;;;;;;;;;;7367022;19;20002;-74
2023/10/13 10:48:17;;;;;;;12.55;5.82;;;;;;;;;;7365864;19;20003;-74
2023/10/13 10:50:44;;;;;;;14.48;5.57;;;;;;;;;;7366727;19;20005;-73
2023/10/13 10:53:09;;;;;;;9.20;5.43;;;;;;;;;;7363290;19;20014;-73
2023/10/13 10:55:36;;;;;;;9.95;5.22;;;;;;;;;;7376702;19;20018;-74
2023/10/13 10:58:05;;;;;;;8.98;5.13;;;;;;;;;;7367329;19;20850;-74
2023/10/13 11:00:45;;;;;;;8.25;5.32;;;;;;;;;;7369980;19;20010;-74
2023/10/13 11:03:11;;;;;;;;;;;;;;;;;;7355829;19;20381;-73
2023/10/13 11:05:47;;;;;;;11.00;5.78;;;;;;;;;;7367944;19;19923;-74
2023/10/13 11:08:37;;;;;;;10.07;5.93;;;;;;;;;;7373917;19;20015;-73
2023/10/13 11:11:05;;;;;;;8.63;5.75;;;;;;;;;;7378752;19;20014;-73
2023/10/13 11:13:50;;;;;;;9.77;5.50;;;;;;;;;;7378233;19;20348;-72
2023/10/13 11:16:33;;;;;;;11.30;5.22;;;;;;;;;;7362808;19;20106;-74
2023/10/13 11:19:01;;;;;;;12.77;5.18;;;;;;;;;;7363739;19;20019;-74
2023/10/13 11:21:30;;;;;;;11.13;5.63;;;;;;;;;;7362676;19;20011;-75
2023/10/13 11:23:57;;;;;;;12.00;5.70;;;;;;;;;;7362173;19;20078;-73
2023/10/13 11:26:33;;;;;;;11.98;5.72;;;;;;;;;;7362068;19;20279;-74
2023/10/13 11:28:58;;;;;;;11.90;5.05;;;;;;;;;;7363022;19;20012;-74
2023/10/13 11:31:24;;;;;;;12.27;5.47;;;;;;;;;;7385539;19;20020;-75
2023/10/13 11:33:50;;;;;;;12.30;5.32;;;;;;;;;;7364417;19;20006;-75
2023/10/13 11:36:31;;;;;;;11.55;5.38;;;;;;;;;;7363519;19;20442;-75
2023/10/13 11:38:57;;;;;;;9.10;5.10;;;;;;;;;;7365813;19;20880;-75
2023/10/13 11:41:23;;;;;;;10.85;5.25;;;;;;;;;;7362482;19;20435;-75
2023/10/13 11:46:16;;;;;;;11.88;5.40;;;;;;;;;;7387225;19;20402;-76
2023/10/13 11:48:43;;;;;;;8.85;5.03;;;;;;;;;;7365656;19;20093;-76
2023/10/13 11:51:26;;;;;;;9.65;5.18;;;;;;;;;;7381474;19;20036;-74
2023/10/13 11:53:51;;;;;;;10.25;5.15;;;;;;;;;;7384384;19;20076;-75
2023/10/13 11:56:20;;;;;;;12.80;5.25;;;;;;;;;;7369185;19;20006;-74
2023/10/13 11:58:47;;;;;;;9.70;5.45;;;;;;;;;;7384617;19;19999;-77
2023/10/13 12:07:02;;;;;;;8.45;5.13;;;;;;;;;;7367217;19;20161;-76
2023/10/13 12:11:54;;;;;;;9.00;5.13;;;;;;;;;;7363412;19;20114;-75
2023/10/13 12:14:37;;;;;;;12.43;5.60;;;;;;;;;;7362098;19;20287;-74
2023/10/13 12:17:04;;;;;;;7.35;4.70;;;;;;;;;;7364615;19;20007;-75
2023/10/13 12:19:30;;;;;;;8.50;4.70;;;;;;;;;;7386626;19;20006;-75
2023/10/13 12:21:57;;;;;;;12.10;4.72;;;;;;;;;;7363788;19;20032;-75
2023/10/13 12:27:23;;;;;;;8.85;5.47;;;;;;;;;;7366072;19;20405;-75
2023/10/13 12:29:52;;;;;;;8.70;5.03;;;;;;;;;;7373922;19;20016;-75
2023/10/13 12:32:25;;;;;;;8.55;4.75;;;;;;;;;;7374645;19;20010;-74
2023/10/13 12:35:17;;;;;;;11.10;4.90;;;;;;;;;;7373597;19;20046;-75
2023/10/13 12:53:52;;;;;;;14.20;6.22;;;;;;;;;;7370110;19;20444;-75
2023/10/13 12:56:28;;;;;;;12.75;5.22;;;;;;;;;;7372610;19;20011;-75
2023/10/13 12:58:54;;;;;;;11.80;5.07;;;;;;;;;;7372719;19;20095;-76
2023/10/13 13:01:26;;;;;;;11.88;4.95;;;;;;;;;;7394186;19;20023;-76
2023/10/13 13:03:56;;;;;;;10.75;4.60;;;;;;;;;;7378846;19;20020;-77
2023/10/13 13:06:26;;;;;;;8.70;4.78;;;;;;;;;;7376966;19;20007;-76
2023/10/13 13:08:52;;;;;;;10.90;5.13;;;;;;;;;;7378402;19;20006;-76
2023/10/13 13:11:17;;;;;;;13.65;5.30;;;;;;;;;;7372115;19;20061;-76
2023/10/13 13:13:42;;;;;;;7.25;4.70;;;;;;;;;;7391212;19;20066;-76
2023/10/13 13:16:08;;;;;;;11.98;4.53;;;;;;;;;;7372748;19;20026;-76
2023/10/13 13:18:34;;;;;;;9.25;4.55;;;;;;;;;;7372817;19;20028;-76
2023/10/13 13:21:00;;;;;;;9.93;4.78;;;;;;;;;;7371745;19;19999;-74
2023/10/13 13:23:25;;;;;;;9.95;4.50;;;;;;;;;;7369123;19;20009;-75
2023/10/13 13:25:56;;;;;;;7.85;4.40;;;;;;;;;;7371594;19;20332;-76
2023/10/13 13:28:24;;;;;;;9.93;4.75;;;;;;;;;;7396614;19;20046;-77
2023/10/13 13:30:50;;;;;;;12.73;4.53;;;;;;;;;;7371920;19;20372;-77
2023/10/13 13:33:16;;;;;;;11.35;4.82;;;;;;;;;;7370466;19;20395;-76
2023/10/13 13:35:48;;;;;;;10.95;4.95;;;;;;;;;;7371322;19;20003;-76
2023/10/13 13:38:21;;;;;;;10.00;4.45;;;;;;;;;;7369519;19;20475;-76
2023/10/13 13:40:49;;;;;;;10.13;4.30;;;;;;;;;;7381618;19;20157;-77
2023/10/13 13:43:31;;;;;;;10.70;4.82;;;;;;;;;;7388868;19;20006;-76
2023/10/13 13:46:00;;;;;;;10.63;4.60;;;;;;;;;;7370341;19;20003;-76
2023/10/13 13:48:27;;;;;;;8.40;4.50;;;;;;;;;;7371098;19;20013;-76
2023/10/13 13:50:55;;;;;;;11.90;4.90;;;;;;;;;;7372521;19;19999;-76
2023/10/13 13:53:27;;;;;;;11.40;4.70;;;;;;;;;;7371623;19;20002;-76
2023/10/13 13:55:53;;;;;;;12.32;4.78;;;;;;;;;;7378105;19;20006;-76
2023/10/13 13:58:18;;;;;;;12.15;4.53;;;;;;;;;;7400265;19;19998;-77
2023/10/13 14:00:48;;;;;;;10.40;4.93;;;;;;;;;;7376559;19;19998;-76
2023/10/13 14:03:30;;;;;;;9.30;4.60;;;;;;;;;;7375560;19;20041;-76
2023/10/13 14:05:58;;;;;;;8.40;4.15;;;;;;;;;;7371836;19;20077;-77
2023/10/13 14:08:25;;;;;;;9.60;4.55;;;;;;;;;;7369309;19;20014;-77
2023/10/13 14:13:55;;;;;;;7.63;4.50;;;;;;;;;;7394020;19;20036;-77
2023/10/13 14:16:22;;;;;;;10.00;4.68;;;;;;;;;;7384404;19;20005;-77
2023/10/13 14:18:49;;;;;;;10.95;5.00;;;;;;;;;;7377210;19;20105;-77
2023/10/13 14:21:18;;;;;;;12.10;4.90;;;;;;;;;;7370872;19;20536;-76
2023/10/13 14:23:48;;;;;;;11.63;4.85;;;;;;;;;;7368948;19;20006;-77
2023/10/13 14:26:20;;;;;;;12.82;4.60;;;;;;;;;;7369788;19;20476;-77
2023/10/13 14:29:01;;;;;;;10.40;4.53;;;;;;;;;;7392158;19;20031;-77
2023/10/13 14:31:31;;;;;;;12.82;4.85;;;;;;;;;;7370360;19;20007;-77
2023/10/13 14:33:56;;;;;;;9.27;4.47;;;;;;;;;;7368173;19;20069;-76
2023/10/13 14:36:22;;;;;;;12.43;4.28;;;;;;;;;;7374740;19;20614;-77
2023/10/13 14:38:50;;;;;;;10.68;4.10;;;;;;;;;;7370379;19;20019;-77
2023/10/13 14:41:19;;;;;;;11.05;4.50;;;;;;;;;;7354034;19;20011;-77
2023/10/13 14:43:48;;;;;;;9.20;4.38;;;;;;;;;;7389015;19;20010;-77
2023/10/13 14:46:18;;;;;;;12.15;5.28;;;;;;;;;;7368117;19;20500;-76
2023/10/13 14:48:44;;;;;;;16.13;4.93;;;;;;;;;;7371984;19;20003;-76
2023/10/13 14:51:13;;;;;;;9.63;4.10;;;;;;;;;;7388784;19;20010;-77
2023/10/13 14:53:43;;;;;;;9.73;4.13;;;;;;;;;;7358308;19;20015;-73
2023/10/13 14:56:17;;;;;;;10.32;5.10;;;;;;;;;;7370289;19;20010;-74
2023/10/13 14:58:44;;;;;;;10.85;4.25;;;;;;;;;;7396137;19;20000;-74
2023/10/13 15:01:26;;;;;;;13.60;4.28;;;;;;;;;;7372134;19;20074;-74
2023/10/13 15:03:55;;;;;;;11.20;3.85;;;;;;;;;;7368688;19;20062;-73
2023/10/13 15:06:25;;;;;;;9.38;4.63;;;;;;;;;;7371333;19;20010;-74
2023/10/13 15:08:53;;;;;;;11.95;4.07;;;;;;;;;;7368368;19;20006;-73
2023/10/13 15:11:19;;;;;;;8.95;3.97;;;;;;;;;;7367339;19;20017;-73
2023/10/13 15:13:44;;;;;;;13.85;4.13;;;;;;;;;;7384285;19;20003;-73
2023/10/13 15:16:15;;;;;;;11.38;4.30;;;;;;;;;;7368877;19;20018;-73
2023/10/13 15:18:40;;;;;;;12.30;4.53;;;;;;;;;;7369065;19;20006;-73
2023/10/13 15:21:08;;;;;;;10.85;3.85;;;;;;;;;;7369664;19;20062;-73
2023/10/13 15:23:42;;;;;;;11.93;4.15;;;;;;;;;;7361846;19;20010;-72
2023/10/13 15:26:09;;;;;;;11.10;4.07;;;;;;;;;;7368119;19;20091;-74
2023/10/13 15:28:37;;;;;;;17.80;4.43;;;;;;;;;;7389193;19;20447;-73
2023/10/13 15:31:10;;;;;;;13.02;4.07;;;;;;;;;;7366978;19;20483;-73
2023/10/13 15:33:35;;;;;;;10.57;4.15;;;;;;;;;;7364346;19;20002;-73
2023/10/13 15:36:01;;;;;;;12.85;4.05;;;;;;;;;;7365280;19;20026;-74
2023/10/13 15:38:28;;;;;;;9.63;4.40;;;;;;;;;;7365757;19;20021;-74
2023/10/13 15:40:57;;;;;;;9.90;4.40;;;;;;;;;;7365062;19;20085;-74
2023/10/13 15:43:22;;;;;;;11.65;4.20;;;;;;;;;;7386002;19;20343;-73
2023/10/13 15:45:48;;;;;;;9.52;4.22;;;;;;;;;;7363612;19;20002;-73
2023/10/13 15:48:15;;;;;;;10.40;3.70;;;;;;;;;;7365776;19;20002;-72
2023/10/13 15:50:41;;;;;;;9.25;4.07;;;;;;;;;;7365189;19;20006;-72
2023/10/13 15:53:07;;;;;;;16.52;4.47;;;;;;;;;;7359588;19;20155;-72
2023/10/13 15:55:37;;;;;;;13.65;4.10;;;;;;;;;;7385769;19;20497;-73
2023/10/13 15:58:07;;;;;;;11.07;4.18;;;;;;;;;;7365856;19;20013;-72
2023/10/13 16:00:35;;;;;;;11.00;3.95;;;;;;;;;;7364299;19;20017;-73
2023/10/13 16:03:00;;;;;;;11.48;4.13;;;;;;;;;;7364641;19;20384;-72
2023/10/13 16:05:34;;;;;;;10.98;4.32;;;;;;;;;;7363452;19;20003;-73
2023/10/13 16:07:59;;;;;;;10.20;4.05;;;;;;;;;;7362210;19;20006;-73
2023/10/13 16:10:26;;;;;;;15.85;4.35;;;;;;;;;;7389518;19;20005;-73
2023/10/13 16:12:52;;;;;;;8.90;4.28;;;;;;;;;;7363894;19;20517;-73
2023/10/13 16:15:18;;;;;;;10.00;3.97;;;;;;;;;;7369037;19;20010;-72
2023/10/13 16:17:44;;;;;;;9.32;3.92;;;;;;;;;;7364827;19;20002;-72
2023/10/13 16:20:18;;;;;;;12.52;3.92;;;;;;;;;;7365001;19;20111;-73
2023/10/13 16:22:45;;;;;;;10.75;3.55;;;;;;;;;;7383457;19;20341;-72
2023/10/13 16:25:15;;;;;;;13.93;3.78;;;;;;;;;;7350991;19;20010;-72
2023/10/13 16:27:42;;;;;;;9.15;3.97;;;;;;;;;;7358840;19;20014;-72
2023/10/13 16:30:09;;;;;;;8.38;4.18;;;;;;;;;;7361426;19;20010;-72
2023/10/13 16:32:35;;;;;;;7.68;3.70;;;;;;;;;;7357468;19;20475;-71
2023/10/13 16:35:04;;;;;;;15.43;3.90;;;;;;;;;;7357862;19;20018;-72
2023/10/13 16:37:30;;;;;;;11.02;3.78;;;;;;;;;;7378389;19;20070;-72
2023/10/13 16:40:04;;;;;;;15.40;4.28;;;;;;;;;;7353992;19;20418;-72
2023/10/13 16:42:30;;;;;;;11.50;4.18;;;;;;;;;;7350978;19;20010;-73
2023/10/13 16:44:56;;;;;;;10.25;4.00;;;;;;;;;;7357637;19;20014;-72
2023/10/13 16:47:21;;;;;;;10.35;3.85;;;;;;;;;;7358712;19;20011;-72
2023/10/13 16:49:47;;;;;;;7.60;3.75;;;;;;;;;;7378447;19;20348;-72
2023/10/13 16:52:12;;;;;;;9.60;4.03;;;;;;;;;;7378184;19;20010;-73
2023/10/13 16:54:38;;;;;;;7.85;3.35;;;;;;;;;;7361632;19;20077;-73
2023/10/13 16:57:06;;;;;;;10.02;4.35;;;;;;;;;;7374907;19;20107;-80
2023/10/13 16:59:32;;;;;;;10.60;4.53;;;;;;;;;;7380064;19;20010;-79
2023/10/13 17:01:57;;;;;;;7.70;4.10;;;;;;;;;;7386027;19;20006;-79
2023/10/13 17:04:24;;;;;;;10.07;4.15;;;;;;;;;;7407912;19;20009;-80
2023/10/13 17:06:50;;;;;;;13.32;4.53;;;;;;;;;;7378086;19;20601;-79
2023/10/13 17:09:15;;;;;;;10.82;4.18;;;;;;;;;;7395772;19;20003;-79
2023/10/13 17:11:43;;;;;;;10.77;3.80;;;;;;;;;;7388710;19;20026;-80
2023/10/13 17:14:09;;;;;;;7.68;3.53;;;;;;;;;;7390081;19;20014;-81
2023/10/13 17:16:34;;;;;;;10.05;4.00;;;;;;;;;;7413157;19;20058;-81
2023/10/13 17:19:01;;;;;;;13.45;3.92;;;;;;;;;;7388797;19;20025;-80
2023/10/13 17:21:28;;;;;;;12.30;4.18;;;;;;;;;;7382202;19;20010;-80
2023/10/13 17:23:54;;;;;;;10.50;3.70;;;;;;;;;;7384165;19;20014;-80
2023/10/13 17:26:22;;;;;;;7.53;3.78;;;;;;;;;;7387703;19;20026;-79
2023/10/13 17:28:49;;;;;;;8.18;3.80;;;;;;;;;;7380802;19;20059;-78
2023/10/13 17:31:14;;;;;;;13.43;3.80;;;;;;;;;;7378483;19;20040;-79
2023/10/13 17:33:40;;;;;;;10.95;4.30;;;;;;;;;;7362496;19;20014;-79
2023/10/13 17:36:10;;;;;;;10.70;3.92;;;;;;;;;;7358564;19;20361;-78
2023/10/13 17:38:36;;;;;;;9.45;3.85;;;;;;;;;;7366738;19;20474;-79
2023/10/13 17:41:04;;;;;;;11.10;3.95;;;;;;;;;;7427783;19;20005;-81
2023/10/13 17:43:30;;;;;;;10.75;4.07;;;;;;;;;;7419563;19;20034;-80
2023/10/13 17:45:55;;;;;;;10.27;4.80;;;;;;;;;;7391585;19;20003;-80
2023/10/13 17:48:22;;;;;;;11.35;3.85;;;;;;;;;;7394201;19;20010;-81
2023/10/13 17:50:48;;;;;;;12.57;4.65;;;;;;;;;;7388979;19;20015;-78
2023/10/13 17:53:13;;;;;;;11.05;3.92;;;;;;;;;;7382194;19;20545;-80
2023/10/13 17:55:39;;;;;;;12.23;4.32;;;;;;;;;;7406427;19;20011;-79
2023/10/13 17:58:05;;;;;;;8.52;4.20;;;;;;;;;;7384045;19;20027;-79